createdAt,value
2023-05-13T00:01:19.780Z,8.05
2023-05-13T00:03:48.327Z,8.10
2023-05-13T00:06:16.395Z,8.15
2023-05-13T00:08:44.562Z,7.95
2023-05-13T00:11:13.811Z,8.07
2023-05-13T00:13:41.977Z,7.72
2023-05-13T00:16:09.896Z,8.63
2023-05-13T00:18:38.159Z,8.05
2023-05-13T00:21:06.182Z,7.40
2023-05-13T00:23:34.322Z,7.57
2023-05-13T00:26:02.606Z,8.32
2023-05-13T00:28:32.221Z,8.95
2023-05-13T00:31:00.123Z,8.65
2023-05-13T00:33:28.366Z,7.55
2023-05-13T00:35:56.312Z,8.10
2023-05-13T00:38:24.462Z,7.95
2023-05-13T00:40:52.395Z,8.15
2023-05-13T00:43:20.631Z,8.20
2023-05-13T00:45:50.086Z,8.10
2023-05-13T00:48:18.690Z,8.68
2023-05-13T00:50:46.641Z,8.50
2023-05-13T00:53:15.102Z,9.13
2023-05-13T00:55:44.033Z,7.82
2023-05-13T00:58:12.536Z,7.90
2023-05-13T01:03:52.030Z,8.15
2023-05-13T01:06:25.085Z,8.75
2023-05-13T01:08:58.249Z,9.15
2023-05-13T01:11:29.213Z,8.35
2023-05-13T01:14:02.750Z,9.73
2023-05-13T01:16:32.859Z,9.98
2023-05-13T01:19:06.236Z,9.30
2023-05-13T01:21:37.434Z,9.25
2023-05-13T01:24:05.874Z,9.73
2023-05-13T01:26:34.051Z,10.20
2023-05-13T01:29:02.101Z,10.38
2023-05-13T01:31:30.999Z,11.50
2023-05-13T01:33:59.308Z,12.00
2023-05-13T01:36:27.467Z,12.10
2023-05-13T01:38:57.477Z,11.35
2023-05-13T01:41:26.485Z,12.73
2023-05-13T01:43:54.353Z,11.75
2023-05-13T01:46:22.555Z,12.38
2023-05-13T01:48:50.614Z,12.35
2023-05-13T01:51:18.950Z,13.05
2023-05-13T01:53:46.824Z,12.38
2023-05-13T01:56:16.336Z,12.45
2023-05-13T01:58:44.240Z,11.95
2023-05-13T02:01:12.361Z,12.50
2023-05-13T02:03:40.320Z,12.88
2023-05-13T02:06:08.892Z,12.00
2023-05-13T02:08:36.777Z,11.82
2023-05-13T02:11:04.911Z,11.20
2023-05-13T02:13:34.122Z,11.90
2023-05-13T02:16:02.308Z,10.77
2023-05-13T02:18:30.390Z,10.88
2023-05-13T02:20:58.565Z,11.73
2023-05-13T02:23:26.560Z,11.30
2023-05-13T02:25:55.026Z,10.57
2023-05-13T02:28:22.938Z,10.77
2023-05-13T02:30:52.453Z,10.93
2023-05-13T02:33:20.344Z,11.40
2023-05-13T02:35:48.457Z,11.38
2023-05-13T02:38:16.422Z,10.88
2023-05-13T02:40:44.811Z,10.52
2023-05-13T02:43:12.712Z,11.23
2023-05-13T02:45:41.961Z,10.48
2023-05-13T02:48:11.894Z,11.30
2023-05-13T02:50:40.970Z,10.13
2023-05-13T02:53:08.860Z,11.30
2023-05-13T02:55:37.148Z,11.20
2023-05-13T02:58:05.416Z,10.13
2023-05-13T03:00:33.547Z,10.32
2023-05-13T03:03:01.460Z,10.00
2023-05-13T03:05:31.011Z,10.25
2023-05-13T03:07:58.872Z,9.90
2023-05-13T03:10:26.998Z,10.32
2023-05-13T03:12:54.939Z,10.32
2023-05-13T03:15:23.697Z,11.35
2023-05-13T03:17:51.665Z,10.80
2023-05-13T03:20:20.144Z,10.52
2023-05-13T03:22:49.637Z,10.70
2023-05-13T03:25:17.909Z,10.70
2023-05-13T03:27:46.105Z,10.50
2023-05-13T03:30:14.982Z,9.65
2023-05-13T03:32:42.930Z,9.73
2023-05-13T03:35:11.096Z,10.13
2023-05-13T03:37:38.987Z,9.90
2023-05-13T03:40:09.981Z,10.73
2023-05-13T03:42:37.852Z,11.57
2023-05-13T03:45:07.082Z,11.10
2023-05-13T03:47:35.240Z,11.27
2023-05-13T03:50:03.466Z,12.65
2023-05-13T03:52:31.330Z,11.85
2023-05-13T03:54:59.649Z,11.27
2023-05-13T03:57:28.859Z,11.88
2023-05-13T03:59:57.096Z,11.95
2023-05-13T04:02:25.188Z,11.55
2023-05-13T04:04:53.366Z,11.13
2023-05-13T04:07:21.290Z,11.23
2023-05-13T04:09:49.421Z,10.98
2023-05-13T04:12:18.122Z,10.25
2023-05-13T04:14:47.717Z,10.98
2023-05-13T04:17:15.600Z,11.13
2023-05-13T04:19:43.721Z,11.15
2023-05-13T04:22:11.594Z,11.07
2023-05-13T04:24:39.741Z,10.23
2023-05-13T04:27:07.643Z,10.73
2023-05-13T04:29:35.796Z,10.18
2023-05-13T04:32:05.695Z,10.02
2023-05-13T04:34:33.879Z,10.43
2023-05-13T04:37:01.781Z,10.10
2023-05-13T04:39:30.391Z,11.02
2023-05-13T04:41:58.265Z,11.50
2023-05-13T04:44:26.162Z,11.68
2023-05-13T04:46:54.409Z,12.90
2023-05-13T04:49:23.795Z,12.77
2023-05-13T04:51:52.345Z,12.23
2023-05-13T04:54:20.725Z,11.82
2023-05-13T04:56:48.863Z,10.93
2023-05-13T04:59:16.939Z,11.88
2023-05-13T05:01:45.312Z,11.25
2023-05-13T05:04:13.584Z,11.73
2023-05-13T05:06:43.124Z,10.25
2023-05-13T05:09:11.010Z,11.20
2023-05-13T05:11:39.413Z,10.35
2023-05-13T05:14:07.428Z,10.25
2023-05-13T05:16:35.649Z,10.38
2023-05-13T05:19:03.602Z,10.18
2023-05-13T05:21:31.897Z,10.90
2023-05-13T05:24:01.869Z,8.55
2023-05-13T05:26:30.170Z,9.05
2023-05-13T05:28:58.033Z,7.90
2023-05-13T05:31:27.712Z,8.52
2023-05-13T05:33:56.574Z,8.85
2023-05-13T05:36:24.887Z,8.13
2023-05-13T05:38:52.780Z,7.53
2023-05-13T05:41:22.801Z,6.85
2023-05-13T05:43:50.950Z,8.02
2023-05-13T05:46:19.206Z,7.57
2023-05-13T05:48:47.203Z,8.15
2023-05-13T05:51:15.483Z,7.38
2023-05-13T05:53:43.373Z,7.80
2023-05-13T05:56:11.538Z,7.63
2023-05-13T05:58:40.841Z,7.13
2023-05-13T06:01:08.950Z,7.07
2023-05-13T06:03:36.992Z,7.40
2023-05-13T06:06:05.633Z,7.15
2023-05-13T06:08:33.523Z,7.60
2023-05-13T06:11:01.909Z,7.60
2023-05-13T06:13:30.156Z,7.45
2023-05-13T06:15:59.683Z,7.70
2023-05-13T06:18:27.668Z,7.63
2023-05-13T06:20:55.975Z,7.45
2023-05-13T06:23:23.852Z,7.78
2023-05-13T06:25:52.071Z,7.38
2023-05-13T06:28:20.033Z,6.80
2023-05-13T06:30:48.178Z,6.60
2023-05-13T06:33:17.445Z,7.07
2023-05-13T06:35:48.085Z,6.22
2023-05-13T06:38:17.665Z,6.97
2023-05-13T06:40:46.174Z,6.30
2023-05-13T06:43:14.613Z,6.20
2023-05-13T06:45:42.902Z,5.78
2023-05-13T06:48:11.149Z,6.32
2023-05-13T06:50:40.962Z,4.55
2023-05-13T06:53:11.196Z,4.40
2023-05-13T06:55:41.607Z,4.38
2023-05-13T06:58:09.993Z,4.60
2023-05-13T07:00:38.634Z,4.07
2023-05-13T07:03:07.013Z,3.80
2023-05-13T07:05:36.211Z,3.50
2023-05-13T07:08:08.317Z,3.80
2023-05-13T07:10:37.385Z,3.28
2023-05-13T07:13:05.399Z,2.50
2023-05-13T07:15:34.133Z,2.45
2023-05-13T07:18:02.030Z,3.00
2023-05-13T07:20:30.459Z,3.00
2023-05-13T07:22:58.638Z,2.20
2023-05-13T07:25:28.428Z,2.25
2023-05-13T07:27:56.411Z,3.53
2023-05-13T07:30:25.010Z,3.40
2023-05-13T07:32:54.148Z,2.25
2023-05-13T07:35:22.673Z,22.20
2023-05-13T07:37:50.788Z,9.05
2023-05-13T07:40:20.888Z,2.65
2023-05-13T07:42:50.490Z,1.90
2023-05-13T07:45:19.162Z,2.30
2023-05-13T07:47:47.382Z,4.10
2023-05-13T07:50:15.512Z,2.55
2023-05-13T07:52:43.587Z,2.83
2023-05-13T07:55:11.928Z,2.25
2023-05-13T07:57:39.788Z,2.17
2023-05-13T08:00:10.857Z,2.15
2023-05-13T08:02:39.574Z,2.30
2023-05-13T08:05:08.380Z,2.45
2023-05-13T08:07:36.264Z,4.00
2023-05-13T08:10:04.872Z,3.35
2023-05-13T08:12:32.773Z,3.05
2023-05-13T08:15:03.752Z,3.30
2023-05-13T08:17:33.537Z,2.60
2023-05-13T08:20:03.758Z,3.35
2023-05-13T08:22:31.893Z,3.42
2023-05-13T08:25:01.096Z,2.72
2023-05-13T08:27:29.153Z,3.17
2023-05-13T08:29:57.442Z,2.63
2023-05-13T08:32:25.533Z,2.67
2023-05-13T08:34:55.049Z,2.90
2023-05-13T08:37:22.949Z,2.67
2023-05-13T08:39:51.089Z,2.67
2023-05-13T08:42:21.641Z,2.33
2023-05-13T08:44:50.480Z,2.78
2023-05-13T08:47:25.330Z,3.50
2023-05-13T08:49:54.947Z,2.40
2023-05-13T08:52:24.072Z,2.30
2023-05-13T08:54:52.197Z,3.58
2023-05-13T08:57:20.043Z,2.28
2023-05-13T08:59:48.216Z,2.65
2023-05-13T09:02:16.218Z,2.45
2023-05-13T09:04:44.590Z,1.95
2023-05-13T09:07:13.816Z,2.20
2023-05-13T09:09:42.054Z,2.30
2023-05-13T09:12:10.525Z,2.47
2023-05-13T09:14:39.928Z,2.20
2023-05-13T09:17:08.253Z,2.25
2023-05-13T09:19:36.958Z,2.28
2023-05-13T09:22:04.929Z,1.98
2023-05-13T09:24:34.395Z,2.25
2023-05-13T09:27:02.243Z,2.53
2023-05-13T09:29:30.595Z,1.95
2023-05-13T09:31:59.506Z,2.97
2023-05-13T09:34:29.652Z,2.67
2023-05-13T09:37:02.130Z,2.17
2023-05-13T09:39:32.275Z,2.13
2023-05-13T09:42:05.105Z,2.55
2023-05-13T09:47:03.141Z,2.05
2023-05-13T09:49:32.705Z,1.90
2023-05-13T09:52:00.588Z,1.65
2023-05-13T09:54:35.533Z,2.55
2023-05-13T09:57:06.942Z,1.92
2023-05-13T09:59:35.279Z,1.60
2023-05-13T10:02:06.527Z,1.90
2023-05-13T10:04:35.308Z,1.60
2023-05-13T10:07:04.988Z,1.80
2023-05-13T10:09:39.297Z,1.92
2023-05-13T10:12:09.803Z,2.80
2023-05-13T10:14:38.762Z,2.17
2023-05-13T10:17:07.723Z,1.90
2023-05-13T10:19:36.605Z,2.25
2023-05-13T10:22:04.854Z,2.25
2023-05-13T10:24:33.256Z,1.83
2023-05-13T10:27:02.831Z,2.47
2023-05-13T10:29:32.591Z,2.72
2023-05-13T10:32:01.023Z,2.00
2023-05-13T10:34:31.328Z,2.28
2023-05-13T10:37:10.740Z,2.13
2023-05-13T10:40:03.951Z,2.72
2023-05-13T10:42:39.513Z,2.13
2023-05-13T10:45:10.240Z,2.20
2023-05-13T10:47:39.023Z,2.58
2023-05-13T10:50:08.556Z,2.47
2023-05-13T10:52:44.325Z,2.22
2023-05-13T10:55:22.650Z,1.88
2023-05-13T10:58:08.679Z,2.40
2023-05-13T11:00:39.168Z,2.78
2023-05-13T11:03:11.788Z,2.65
2023-05-13T11:05:41.914Z,2.33
2023-05-13T11:08:09.958Z,2.50
2023-05-13T11:10:38.102Z,2.05
2023-05-13T11:13:24.527Z,2.45
2023-05-13T11:15:55.779Z,2.13
2023-05-13T11:18:31.155Z,2.67
2023-05-13T11:21:05.406Z,2.90
2023-05-13T11:23:35.449Z,3.00
2023-05-13T11:26:16.117Z,2.72
2023-05-13T11:29:00.920Z,3.28
2023-05-13T11:31:45.451Z,2.28
2023-05-13T11:34:15.375Z,2.53
2023-05-13T11:36:45.821Z,2.50
2023-05-13T11:39:16.005Z,1.92
2023-05-13T11:41:46.051Z,2.92
2023-05-13T11:44:15.483Z,2.53
2023-05-13T11:46:56.714Z,2.70
2023-05-13T11:49:34.742Z,2.55
2023-05-13T11:52:04.036Z,2.30
2023-05-13T11:54:31.960Z,2.83
2023-05-13T11:57:00.206Z,2.75
2023-05-13T11:59:33.249Z,2.35
2023-05-13T12:02:05.759Z,2.35
2023-05-13T12:04:33.730Z,4.50
2023-05-13T12:07:01.941Z,2.75
2023-05-13T12:09:29.818Z,2.60
2023-05-13T12:11:58.168Z,2.33
2023-05-13T12:14:27.837Z,3.00
2023-05-13T12:16:57.231Z,2.67
2023-05-13T12:19:26.498Z,2.10
2023-05-13T12:21:54.882Z,3.05
2023-05-13T12:24:23.379Z,2.78
2023-05-13T12:26:51.577Z,2.78
2023-05-13T12:29:19.695Z,2.28
2023-05-13T12:32:06.552Z,2.38
2023-05-13T12:34:36.588Z,2.00
2023-05-13T12:37:12.402Z,3.15
2023-05-13T12:39:41.461Z,2.30
2023-05-13T12:42:15.895Z,2.50
2023-05-13T12:44:45.283Z,2.03
2023-05-13T12:47:19.230Z,2.10
2023-05-13T12:49:55.180Z,1.90
2023-05-13T12:52:23.648Z,2.03
2023-05-13T12:54:51.741Z,2.22
2023-05-13T12:57:20.512Z,2.20
2023-05-13T12:59:48.445Z,2.17
2023-05-13T13:02:16.592Z,8.43
2023-05-13T13:04:44.458Z,5.40
2023-05-13T13:07:14.615Z,3.25
2023-05-13T13:09:42.662Z,2.10
2023-05-13T13:12:11.333Z,1.80
2023-05-13T13:14:39.191Z,2.30
2023-05-13T13:17:07.662Z,2.75
2023-05-13T13:19:35.505Z,2.13
2023-05-13T13:22:03.955Z,1.83
2023-05-13T13:24:33.264Z,1.75
2023-05-13T13:27:01.392Z,2.38
2023-05-13T13:29:29.265Z,2.13
2023-05-13T13:31:57.475Z,2.08
2023-05-13T13:34:25.342Z,1.58
2023-05-13T13:36:53.734Z,1.98
2023-05-13T13:39:22.064Z,1.92
2023-05-13T13:41:51.527Z,1.90
2023-05-13T13:44:19.396Z,2.33
2023-05-13T13:46:48.109Z,2.42
2023-05-13T13:49:23.269Z,2.08
2023-05-13T13:51:52.575Z,2.15
2023-05-13T13:54:20.917Z,2.83
2023-05-13T13:56:50.719Z,2.75
2023-05-13T13:59:19.759Z,2.25
2023-05-13T14:01:48.166Z,2.40
2023-05-13T14:04:17.175Z,2.78
2023-05-13T14:06:46.298Z,2.13
2023-05-13T14:09:14.203Z,2.30
2023-05-13T14:11:42.499Z,2.65
2023-05-13T14:14:12.061Z,2.50
2023-05-13T14:16:40.200Z,2.30
2023-05-13T14:19:08.349Z,2.42
2023-05-13T14:21:36.627Z,2.08
2023-05-13T14:24:04.859Z,2.90
2023-05-13T14:26:33.097Z,2.45
2023-05-13T14:29:00.970Z,3.30
2023-05-13T14:31:30.941Z,2.50
2023-05-13T14:33:58.904Z,2.65
2023-05-13T14:36:27.509Z,2.53
2023-05-13T14:38:55.613Z,3.10
2023-05-13T14:41:24.151Z,2.45
2023-05-13T14:43:52.129Z,2.83
2023-05-13T14:46:20.288Z,2.30
2023-05-13T14:48:49.579Z,2.47
2023-05-13T14:51:17.841Z,2.67
2023-05-13T14:53:45.690Z,2.72
2023-05-13T14:56:14.150Z,3.20
2023-05-13T14:58:42.328Z,3.95
2023-05-13T15:01:10.691Z,2.80
2023-05-13T15:03:38.802Z,3.55
2023-05-13T15:06:09.041Z,3.53
2023-05-13T15:08:37.644Z,3.38
2023-05-13T15:11:07.123Z,3.22
2023-05-13T15:13:35.706Z,3.05
2023-05-13T15:16:04.283Z,2.95
2023-05-13T15:18:32.598Z,3.72
2023-05-13T15:21:00.768Z,3.45
2023-05-13T15:23:29.980Z,3.10
2023-05-13T15:25:58.176Z,3.25
2023-05-13T15:28:26.214Z,2.50
2023-05-13T15:30:54.362Z,3.03
2023-05-13T15:33:22.279Z,4.13
2023-05-13T15:35:50.883Z,4.72
2023-05-13T15:38:18.920Z,4.97
2023-05-13T15:40:48.616Z,4.78
2023-05-13T15:43:16.692Z,4.40
2023-05-13T15:45:45.029Z,4.28
2023-05-13T15:48:13.143Z,5.00
2023-05-13T15:50:41.480Z,4.82
2023-05-13T15:53:09.354Z,5.38
2023-05-13T15:55:39.317Z,4.60
2023-05-13T15:58:08.849Z,4.07
2023-05-13T16:00:37.043Z,5.25
2023-05-13T16:03:05.053Z,3.75
2023-05-13T16:05:33.777Z,4.22
2023-05-13T16:08:01.665Z,3.60
2023-05-13T16:10:29.892Z,4.13
2023-05-13T16:12:58.116Z,3.78
2023-05-13T16:15:27.899Z,4.03
2023-05-13T16:17:55.830Z,3.83
2023-05-13T16:20:24.499Z,2.97
2023-05-13T16:22:52.628Z,2.75
2023-05-13T16:25:21.360Z,2.88
2023-05-13T16:27:50.087Z,3.00
2023-05-13T16:30:18.535Z,2.47
2023-05-13T16:32:52.980Z,2.90
2023-05-13T16:35:21.556Z,2.17
2023-05-13T16:40:52.472Z,2.22
2023-05-13T16:43:20.628Z,2.33
2023-05-13T16:45:49.533Z,2.42
2023-05-13T16:48:20.084Z,2.20
2023-05-13T16:50:48.062Z,1.83
2023-05-13T16:53:16.281Z,1.98
2023-05-13T16:55:44.316Z,1.65
2023-05-13T16:58:12.699Z,2.10
2023-05-13T17:00:40.711Z,2.17
2023-05-13T17:03:08.983Z,2.42
2023-05-13T17:05:38.330Z,2.33
2023-05-13T17:08:06.720Z,2.50
2023-05-13T17:10:34.713Z,2.67
2023-05-13T17:13:02.884Z,2.78
2023-05-13T17:15:30.765Z,3.47
2023-05-13T17:17:59.060Z,2.40
2023-05-13T17:20:27.086Z,2.92
2023-05-13T17:22:56.535Z,3.25
2023-05-13T17:25:24.377Z,3.70
2023-05-13T17:27:52.972Z,4.13
2023-05-13T17:30:20.998Z,2.67
2023-05-13T17:32:49.387Z,3.35
2023-05-13T17:35:17.374Z,4.80
2023-05-13T17:37:45.740Z,3.40
2023-05-13T17:40:15.229Z,4.55
2023-05-13T17:42:43.369Z,2.80
2023-05-13T17:45:11.794Z,2.80
2023-05-13T17:47:40.296Z,2.83
2023-05-13T17:50:08.850Z,2.75
2023-05-13T17:52:36.972Z,2.72
2023-05-13T17:55:06.042Z,3.65
2023-05-13T17:57:35.607Z,2.47
2023-05-13T18:00:06.487Z,3.05
2023-05-13T18:02:36.064Z,3.47
2023-05-13T18:05:04.070Z,3.92
2023-05-13T18:07:32.196Z,3.33
2023-05-13T18:10:00.624Z,4.22
2023-05-13T18:12:29.427Z,4.40
2023-05-13T18:14:58.701Z,6.80
2023-05-13T18:17:28.888Z,5.00
2023-05-13T18:19:56.765Z,5.40
2023-05-13T18:22:24.902Z,7.10
2023-05-13T18:24:52.750Z,6.95
2023-05-13T18:27:21.466Z,6.53
2023-05-13T18:29:49.304Z,6.20
2023-05-13T18:32:18.918Z,6.28
2023-05-13T18:34:46.776Z,6.60
2023-05-13T18:37:15.861Z,6.50
2023-05-13T18:39:45.773Z,7.47
2023-05-13T18:42:14.098Z,7.00
2023-05-13T18:44:42.000Z,6.38
2023-05-13T18:47:11.001Z,5.60
2023-05-13T18:49:40.205Z,5.72
2023-05-13T18:52:08.948Z,6.72
2023-05-13T18:54:37.662Z,8.32
2023-05-13T18:57:06.305Z,8.07
2023-05-13T18:59:34.348Z,9.10
2023-05-13T19:02:02.774Z,8.25
2023-05-13T19:04:31.042Z,7.43
2023-05-13T19:07:01.405Z,8.13
2023-05-13T19:09:29.310Z,8.32
2023-05-13T19:11:57.536Z,9.15
2023-05-13T19:14:25.405Z,9.10
2023-05-13T19:16:53.627Z,10.23
2023-05-13T19:19:21.565Z,10.23
2023-05-13T19:21:49.791Z,11.75
2023-05-13T19:24:19.021Z,9.60
2023-05-13T19:26:47.156Z,9.77
2023-05-13T19:29:15.229Z,8.85
2023-05-13T19:31:43.444Z,9.10
2023-05-13T19:34:11.830Z,7.78
2023-05-13T19:36:40.047Z,8.55
2023-05-13T19:39:08.263Z,8.38
2023-05-13T19:41:38.419Z,8.43
2023-05-13T19:44:07.172Z,7.97
2023-05-13T19:46:35.494Z,8.57
2023-05-13T19:49:03.613Z,9.07
2023-05-13T19:51:32.417Z,9.35
2023-05-13T19:54:00.277Z,9.52
2023-05-13T19:56:28.816Z,8.82
2023-05-13T19:58:58.134Z,8.88
2023-05-13T20:01:26.549Z,11.32
2023-05-13T20:03:55.250Z,10.52
2023-05-13T20:06:23.582Z,10.38
2023-05-13T20:08:51.463Z,10.52
2023-05-13T20:11:19.686Z,11.10
2023-05-13T20:13:47.681Z,10.55
2023-05-13T20:16:17.198Z,10.52
2023-05-13T20:18:45.151Z,11.57
2023-05-13T20:21:13.494Z,10.52
2023-05-13T20:23:41.546Z,11.63
2023-05-13T20:26:09.723Z,11.15
2023-05-13T20:28:37.997Z,10.73
2023-05-13T20:31:06.696Z,10.85
2023-05-13T20:33:35.947Z,12.35
2023-05-13T20:36:06.238Z,13.20
2023-05-13T20:38:34.145Z,13.25
2023-05-13T20:41:02.272Z,13.23
2023-05-13T20:43:32.185Z,13.02
2023-05-13T20:46:00.479Z,13.00
2023-05-13T20:48:31.780Z,13.07
2023-05-13T20:51:04.562Z,13.07
2023-05-13T20:53:33.238Z,14.13
2023-05-13T20:56:02.954Z,13.40
2023-05-13T20:58:30.967Z,12.15
2023-05-13T21:00:59.150Z,13.23
2023-05-13T21:03:27.250Z,13.40
2023-05-13T21:05:55.430Z,13.75
2023-05-13T21:08:24.628Z,13.32
2023-05-13T21:10:56.071Z,12.68
2023-05-13T21:13:25.865Z,13.10
2023-05-13T21:15:54.066Z,14.88
2023-05-13T21:18:22.256Z,14.60
2023-05-13T21:20:51.187Z,13.90
2023-05-13T21:23:20.438Z,14.15
2023-05-13T21:25:50.119Z,13.88
2023-05-13T21:28:18.265Z,15.15
2023-05-13T21:30:46.540Z,14.50
2023-05-13T21:33:14.527Z,15.70
2023-05-13T21:35:42.734Z,15.18
2023-05-13T21:38:12.285Z,14.52
2023-05-13T21:40:40.875Z,15.05
2023-05-13T21:43:10.718Z,16.00
2023-05-13T21:45:39.914Z,16.17
2023-05-13T21:48:08.054Z,16.10
2023-05-13T21:50:36.573Z,15.70
2023-05-13T21:53:04.909Z,15.48
2023-05-13T21:55:34.967Z,16.65
2023-05-13T21:58:03.083Z,15.50
2023-05-13T22:00:32.852Z,15.80
2023-05-13T22:03:01.495Z,15.20
2023-05-13T22:05:31.856Z,14.30
2023-05-13T22:08:01.721Z,15.57
2023-05-13T22:10:31.104Z,15.30
2023-05-13T22:12:58.982Z,15.27
2023-05-13T22:15:27.274Z,15.40
2023-05-13T22:17:56.587Z,16.00
2023-05-13T22:20:25.401Z,16.50
2023-05-13T22:22:53.545Z,16.88
2023-05-13T22:25:23.583Z,15.85
2023-05-13T22:27:52.129Z,16.70
2023-05-13T22:30:20.892Z,17.15
2023-05-13T22:32:50.345Z,16.88
2023-05-13T22:35:19.905Z,16.17
2023-05-13T22:37:47.890Z,17.08
2023-05-13T22:40:16.357Z,19.00
2023-05-13T22:42:44.209Z,17.35
2023-05-13T22:45:12.908Z,16.85
2023-05-13T22:47:40.854Z,17.90
2023-05-13T22:50:09.633Z,19.45
2023-05-13T22:52:38.886Z,18.58
2023-05-13T22:55:08.565Z,18.20
2023-05-13T22:57:36.440Z,18.15
2023-05-13T23:00:04.920Z,17.73
2023-05-13T23:02:32.876Z,18.63
2023-05-13T23:05:01.102Z,17.48
2023-05-13T23:07:29.009Z,17.80
2023-05-13T23:09:58.749Z,17.50
2023-05-13T23:12:26.777Z,18.10
2023-05-13T23:14:54.905Z,18.02
2023-05-13T23:17:22.793Z,17.92
2023-05-13T23:19:51.006Z,18.25
2023-05-13T23:22:18.877Z,17.13
2023-05-13T23:24:47.026Z,17.48
2023-05-13T23:27:16.288Z,18.25
2023-05-13T23:29:44.513Z,18.02
2023-05-13T23:32:12.543Z,16.52
2023-05-13T23:34:40.802Z,17.13
2023-05-13T23:37:08.688Z,16.58
2023-05-13T23:39:36.892Z,15.75
2023-05-13T23:42:05.041Z,15.18
2023-05-13T23:44:34.517Z,16.45
2023-05-13T23:47:02.376Z,16.33
2023-05-13T23:49:30.666Z,15.45
2023-05-13T23:51:58.516Z,16.65
2023-05-13T23:54:26.729Z,16.50
2023-05-13T23:56:54.607Z,16.80
2023-05-13T23:59:22.783Z,16.73
